Time;durP1;ratioP1;P1;durP2;ratioP2;P2;SDS_P1;SDS_P2;PMS_P1;PMS_P2;Temp;Humidity;BMP_temperature;BMP_pressure;BME280_temperature;BME280_humidity;BME280_pressure;Samples;Min_cycle;Max_cycle;Signal;HPM_P1;HPM_P2
2023/03/04 00:01:52;;;;;;;92.70;31.25;;;;;;;;;;5028568;28;20028;-50
2023/03/04 00:04:17;;;;;;;84.25;29.92;;;;;;;;;;5028446;28;20035;-52
2023/03/04 00:06:42;;;;;;;69.22;28.75;;;;;;;;;;5028578;28;20141;-50
2023/03/04 00:09:08;;;;;;;80.07;28.13;;;;;;;;;;5028343;28;20025;-50
2023/03/04 00:11:33;;;;;;;84.40;29.45;;;;;;;;;;5028192;28;20079;-51
2023/03/04 00:13:59;;;;;;;78.57;28.30;;;;;;;;;;5028022;28;20488;-52
2023/03/04 00:16:27;;;;;;;80.60;28.50;;;;;;;;;;5028618;28;20083;-50
2023/03/04 00:18:53;;;;;;;85.40;28.53;;;;;;;;;;5028626;28;20368;-50
2023/03/04 00:21:18;;;;;;;70.55;29.23;;;;;;;;;;5028967;28;20243;-53
2023/03/04 00:23:44;;;;;;;67.47;26.65;;;;;;;;;;5029087;28;20383;-49
2023/03/04 00:26:09;;;;;;;76.50;28.33;;;;;;;;;;5010071;28;20057;-50
2023/03/04 00:28:34;;;;;;;68.55;26.58;;;;;;;;;;5028613;28;20025;-49
2023/03/04 00:31:00;;;;;;;65.80;25.75;;;;;;;;;;5028335;28;20061;-49
2023/03/04 00:33:25;;;;;;;75.28;26.48;;;;;;;;;;5027686;28;20089;-48
2023/03/04 00:35:50;;;;;;;69.97;26.95;;;;;;;;;;5027676;28;20052;-56
2023/03/04 00:38:16;;;;;;;62.75;25.08;;;;;;;;;;5027140;28;20056;-54
2023/03/04 00:40:41;;;;;;;69.63;28.48;;;;;;;;;;5041931;28;20030;-53
2023/03/04 00:43:06;;;;;;;75.43;28.08;;;;;;;;;;5027786;28;20522;-54
2023/03/04 00:45:31;;;;;;;69.53;27.90;;;;;;;;;;5028289;28;20513;-53
2023/03/04 00:47:57;;;;;;;64.15;26.13;;;;;;;;;;5028655;28;20024;-51
2023/03/04 00:50:22;;;;;;;75.60;26.90;;;;;;;;;;5029054;28;20037;-53
2023/03/04 00:52:47;;;;;;;75.72;28.13;;;;;;;;;;5029365;28;20057;-52
2023/03/04 00:55:13;;;;;;;68.75;26.95;;;;;;;;;;5029348;28;20025;-53
2023/03/04 00:57:38;;;;;;;71.85;27.45;;;;;;;;;;5028161;28;20036;-53
2023/03/04 01:00:03;;;;;;;66.65;28.13;;;;;;;;;;5029318;28;20022;-52
2023/03/04 01:02:29;;;;;;;72.00;27.38;;;;;;;;;;5030386;28;20045;-50
2023/03/04 01:04:54;;;;;;;71.10;26.27;;;;;;;;;;5029701;28;20025;-50
2023/03/04 01:07:19;;;;;;;67.85;27.13;;;;;;;;;;5029310;28;20030;-51
2023/03/04 01:09:45;;;;;;;66.38;25.92;;;;;;;;;;5029502;28;20423;-51
2023/03/04 01:12:10;;;;;;;67.20;26.58;;;;;;;;;;5029249;28;20058;-49
2023/03/04 01:14:35;;;;;;;64.65;26.08;;;;;;;;;;5029732;28;20404;-52
2023/03/04 01:17:01;;;;;;;65.93;26.00;;;;;;;;;;5029390;28;20052;-54
2023/03/04 01:19:26;;;;;;;68.40;28.42;;;;;;;;;;5029525;28;20455;-51
2023/03/04 01:21:51;;;;;;;73.18;27.90;;;;;;;;;;5029262;28;20455;-49
2023/03/04 01:24:17;;;;;;;75.03;27.42;;;;;;;;;;5027913;28;20044;-50
2023/03/04 01:26:42;;;;;;;71.35;27.17;;;;;;;;;;5027371;28;20029;-49
2023/03/04 01:29:08;;;;;;;63.42;25.75;;;;;;;;;;5028058;28;20028;-49
2023/03/04 01:31:33;;;;;;;64.75;24.88;;;;;;;;;;5027862;28;20113;-53
2023/03/04 01:33:58;;;;;;;71.95;26.13;;;;;;;;;;5027872;28;20029;-50
2023/03/04 01:36:23;;;;;;;67.93;25.40;;;;;;;;;;5027985;28;20029;-50
2023/03/04 01:38:49;;;;;;;71.72;27.48;;;;;;;;;;5027866;28;20057;-53
2023/03/04 01:41:16;;;;;;;71.63;27.27;;;;;;;;;;5027889;28;20108;-53
2023/03/04 01:43:41;;;;;;;69.28;26.92;;;;;;;;;;5027405;28;20029;-53
2023/03/04 01:46:06;;;;;;;79.85;29.63;;;;;;;;;;5026837;28;20060;-50
2023/03/04 01:48:35;;;;;;;75.65;26.55;;;;;;;;;;5026716;28;20102;-48
2023/03/04 01:51:04;;;;;;;66.93;27.45;;;;;;;;;;5027071;28;20029;-55
2023/03/04 01:53:30;;;;;;;53.47;22.95;;;;;;;;;;5040617;28;20042;-51
2023/03/04 01:55:56;;;;;;;71.85;26.23;;;;;;;;;;5026658;28;20113;-48
2023/03/04 01:58:24;;;;;;;75.70;28.65;;;;;;;;;;5026939;28;20049;-51
2023/03/04 02:00:49;;;;;;;67.97;26.63;;;;;;;;;;5026690;28;20109;-50
2023/03/04 02:03:18;;;;;;;68.25;26.38;;;;;;;;;;5026323;28;20112;-50
2023/03/04 02:05:45;;;;;;;66.07;26.50;;;;;;;;;;5026961;28;20122;-49
2023/03/04 02:08:12;;;;;;;71.13;26.75;;;;;;;;;;5026989;28;20175;-52
2023/03/04 02:10:38;;;;;;;65.75;25.13;;;;;;;;;;5027630;28;20048;-48
2023/03/04 02:13:03;;;;;;;78.90;28.52;;;;;;;;;;5026424;28;20465;-47
2023/03/04 02:15:29;;;;;;;72.07;27.92;;;;;;;;;;5026293;28;20485;-49
2023/03/04 02:17:55;;;;;;;72.15;27.25;;;;;;;;;;5026271;28;20025;-47
2023/03/04 02:20:29;;;;;;;70.40;25.98;;;;;;;;;;5026113;28;20057;-48
2023/03/04 02:22:54;;;;;;;67.82;26.75;;;;;;;;;;5026194;28;20033;-46
2023/03/04 02:25:23;;;;;;;69.20;26.65;;;;;;;;;;5026437;28;20025;-50
2023/03/04 02:27:48;;;;;;;66.60;25.92;;;;;;;;;;5026261;28;20096;-49
2023/03/04 02:30:13;;;;;;;74.43;29.20;;;;;;;;;;5026619;28;20887;-49
2023/03/04 02:32:39;;;;;;;69.00;27.10;;;;;;;;;;5026291;28;20029;-47
2023/03/04 02:35:04;;;;;;;76.22;28.83;;;;;;;;;;5026255;28;20032;-46
2023/03/04 02:37:29;;;;;;;69.45;27.95;;;;;;;;;;5026171;28;20528;-53
2023/03/04 02:39:55;;;;;;;62.78;26.83;;;;;;;;;;5026151;28;20104;-48
2023/03/04 02:42:20;;;;;;;76.90;27.85;;;;;;;;;;5025784;28;20369;-51
2023/03/04 02:44:48;;;;;;;69.90;27.30;;;;;;;;;;5027454;28;20029;-49
2023/03/04 02:47:14;;;;;;;77.30;26.95;;;;;;;;;;5026981;28;20021;-49
2023/03/04 02:49:40;;;;;;;67.55;27.02;;;;;;;;;;5040698;28;20117;-50
2023/03/04 02:52:06;;;;;;;70.00;26.25;;;;;;;;;;5026330;28;20166;-48
2023/03/04 02:54:32;;;;;;;74.97;27.65;;;;;;;;;;5026987;28;20050;-49
2023/03/04 02:56:59;;;;;;;71.28;28.23;;;;;;;;;;5026676;28;20028;-48
2023/03/04 02:59:24;;;;;;;66.43;25.30;;;;;;;;;;5026941;28;20021;-48
2023/03/04 03:01:50;;;;;;;71.93;28.67;;;;;;;;;;5030318;28;20030;-50
2023/03/04 03:04:16;;;;;;;67.78;26.92;;;;;;;;;;5030404;28;20508;-51
2023/03/04 03:06:41;;;;;;;76.15;26.00;;;;;;;;;;5029620;28;20028;-49
2023/03/04 03:09:06;;;;;;;73.05;28.30;;;;;;;;;;5030006;28;20116;-52
2023/03/04 03:11:32;;;;;;;75.03;28.38;;;;;;;;;;5030228;28;20025;-52
2023/03/04 03:13:57;;;;;;;75.40;26.95;;;;;;;;;;5044346;28;20384;-50
2023/03/04 03:16:22;;;;;;;77.55;27.10;;;;;;;;;;5030011;28;20013;-49
2023/03/04 03:18:47;;;;;;;70.90;26.50;;;;;;;;;;5029820;28;20056;-49
2023/03/04 03:21:13;;;;;;;69.05;27.20;;;;;;;;;;5029614;28;20384;-49
2023/03/04 03:23:38;;;;;;;75.53;26.15;;;;;;;;;;5029211;28;20091;-49
2023/03/04 03:26:03;;;;;;;79.65;27.08;;;;;;;;;;5029656;28;20033;-48
2023/03/04 03:28:29;;;;;;;73.95;27.38;;;;;;;;;;5030043;28;20026;-49
2023/03/04 03:30:54;;;;;;;78.72;27.33;;;;;;;;;;5029735;28;20048;-50
2023/03/04 03:33:19;;;;;;;71.82;28.13;;;;;;;;;;5029378;28;20324;-48
2023/03/04 03:35:45;;;;;;;71.75;27.40;;;;;;;;;;5029183;28;20026;-52
2023/03/04 03:38:10;;;;;;;71.97;27.27;;;;;;;;;;5028956;28;20109;-46
2023/03/04 03:40:35;;;;;;;72.65;27.80;;;;;;;;;;5029258;28;20741;-50
2023/03/04 03:43:00;;;;;;;67.28;27.42;;;;;;;;;;5011985;28;20029;-49
2023/03/04 03:45:26;;;;;;;71.55;28.67;;;;;;;;;;5029629;28;20030;-51
2023/03/04 03:47:51;;;;;;;76.65;28.50;;;;;;;;;;5029467;28;20033;-49
2023/03/04 03:50:16;;;;;;;86.15;30.52;;;;;;;;;;5029617;28;20014;-52
2023/03/04 03:52:42;;;;;;;73.25;28.58;;;;;;;;;;5029231;28;20400;-48
2023/03/04 03:55:07;;;;;;;79.10;27.65;;;;;;;;;;5029134;28;20377;-50
2023/03/04 03:57:33;;;;;;;79.15;26.80;;;;;;;;;;5028712;28;20017;-49
2023/03/04 03:59:58;;;;;;;74.80;28.08;;;;;;;;;;5028925;28;20043;-51
2023/03/04 04:02:23;;;;;;;65.07;25.83;;;;;;;;;;5029271;28;20046;-48
2023/03/04 04:04:49;;;;;;;66.70;24.75;;;;;;;;;;5029251;28;20053;-49
2023/03/04 04:07:14;;;;;;;78.20;28.65;;;;;;;;;;5029120;28;20026;-50
2023/03/04 04:09:39;;;;;;;83.05;29.67;;;;;;;;;;5028977;28;20032;-50
2023/03/04 04:12:05;;;;;;;74.75;26.48;;;;;;;;;;5029036;28;20021;-50
2023/03/04 04:14:31;;;;;;;73.22;26.92;;;;;;;;;;5029002;28;20021;-49
2023/03/04 04:16:56;;;;;;;73.15;27.13;;;;;;;;;;5028859;28;20017;-50
2023/03/04 04:19:21;;;;;;;69.20;25.73;;;;;;;;;;5028616;28;20128;-53
2023/03/04 04:21:47;;;;;;;73.05;27.02;;;;;;;;;;5028767;28;20365;-48
2023/03/04 04:24:12;;;;;;;67.57;25.65;;;;;;;;;;5028751;28;20029;-50
2023/03/04 04:26:38;;;;;;;72.18;26.67;;;;;;;;;;5028908;28;20026;-50
2023/03/04 04:29:03;;;;;;;71.05;25.55;;;;;;;;;;5026197;28;20794;-49
2023/03/04 04:31:28;;;;;;;71.55;25.15;;;;;;;;;;5028417;28;20014;-50
2023/03/04 04:33:54;;;;;;;59.38;25.05;;;;;;;;;;5028668;28;20128;-51
2023/03/04 04:36:19;;;;;;;70.10;26.80;;;;;;;;;;5028594;28;20017;-50
2023/03/04 04:38:44;;;;;;;68.68;25.17;;;;;;;;;;5028398;28;20025;-50
2023/03/04 04:41:20;;;;;;;66.38;24.02;;;;;;;;;;5028353;28;20030;-49
2023/03/04 04:43:45;;;;;;;66.25;25.42;;;;;;;;;;5028221;28;20041;-49
2023/03/04 04:46:11;;;;;;;71.68;25.90;;;;;;;;;;5028327;28;20014;-51
2023/03/04 04:48:36;;;;;;;69.43;26.35;;;;;;;;;;5028324;28;20048;-49
2023/03/04 04:51:01;;;;;;;66.22;24.73;;;;;;;;;;5027546;28;20496;-48
2023/03/04 04:53:26;;;;;;;60.53;24.52;;;;;;;;;;5027456;28;20091;-47
2023/03/04 04:55:52;;;;;;;69.15;24.75;;;;;;;;;;5027943;28;20021;-48
2023/03/04 04:58:17;;;;;;;64.57;25.20;;;;;;;;;;5027925;28;20029;-50
2023/03/04 05:00:42;;;;;;;61.30;22.20;;;;;;;;;;5028252;28;20118;-47
2023/03/04 05:03:08;;;;;;;54.05;21.08;;;;;;;;;;5028524;28;20040;-50
2023/03/04 05:05:33;;;;;;;64.68;23.60;;;;;;;;;;5028537;28;20025;-48
2023/03/04 05:07:58;;;;;;;60.28;24.38;;;;;;;;;;5028074;28;20069;-48
2023/03/04 05:10:23;;;;;;;55.65;21.88;;;;;;;;;;5028145;28;20107;-52
2023/03/04 05:12:49;;;;;;;66.80;25.52;;;;;;;;;;5027913;28;20091;-52
2023/03/04 05:15:14;;;;;;;72.18;25.40;;;;;;;;;;5027840;28;20028;-51
2023/03/04 05:17:39;;;;;;;68.95;23.98;;;;;;;;;;5027706;28;20018;-51
2023/03/04 05:20:06;;;;;;;63.90;24.45;;;;;;;;;;5027542;28;20034;-49
2023/03/04 05:22:31;;;;;;;72.20;24.50;;;;;;;;;;5027343;28;20065;-52
2023/03/04 05:24:56;;;;;;;63.60;23.02;;;;;;;;;;5027610;28;20138;-52
2023/03/04 05:27:22;;;;;;;59.78;22.83;;;;;;;;;;5027591;28;20033;-49
2023/03/04 05:29:47;;;;;;;57.53;23.65;;;;;;;;;;5026729;28;20053;-50
2023/03/04 05:32:12;;;;;;;64.13;24.65;;;;;;;;;;5026899;28;20017;-51
2023/03/04 05:34:38;;;;;;;55.30;21.05;;;;;;;;;;5025331;28;20025;-48
2023/03/04 05:37:03;;;;;;;55.20;21.90;;;;;;;;;;5026803;28;20025;-48
2023/03/04 05:39:28;;;;;;;59.13;23.55;;;;;;;;;;5027341;28;20021;-48
2023/03/04 05:41:54;;;;;;;56.58;22.63;;;;;;;;;;5027140;28;20388;-48
2023/03/04 05:44:19;;;;;;;57.53;22.60;;;;;;;;;;5026677;28;20038;-50
2023/03/04 05:46:44;;;;;;;52.75;20.52;;;;;;;;;;5026844;28;20021;-53
2023/03/04 05:49:09;;;;;;;56.47;21.80;;;;;;;;;;5026706;28;20029;-50
2023/03/04 05:51:35;;;;;;;62.25;22.55;;;;;;;;;;5027061;28;20449;-52
2023/03/04 05:54:00;;;;;;;69.07;23.10;;;;;;;;;;5027082;28;20094;-51
2023/03/04 05:56:25;;;;;;;59.65;21.30;;;;;;;;;;5027383;28;20685;-47
2023/03/04 05:58:50;;;;;;;57.05;22.42;;;;;;;;;;5027107;28;20014;-52
2023/03/04 06:01:16;;;;;;;56.22;21.25;;;;;;;;;;5026928;28;20484;-49
2023/03/04 06:03:44;;;;;;;62.13;22.05;;;;;;;;;;5026634;28;20040;-48
2023/03/04 06:06:09;;;;;;;54.70;21.55;;;;;;;;;;5026297;28;20203;-49
2023/03/04 06:08:34;;;;;;;65.10;23.25;;;;;;;;;;5025238;28;20167;-49
2023/03/04 06:11:00;;;;;;;55.15;23.90;;;;;;;;;;5025416;28;20199;-50
2023/03/04 06:13:25;;;;;;;56.67;22.65;;;;;;;;;;5025419;28;20033;-49
2023/03/04 06:15:55;;;;;;;67.82;23.50;;;;;;;;;;5025218;28;20199;-50
2023/03/04 06:18:20;;;;;;;61.30;22.33;;;;;;;;;;5025213;28;20065;-47
2023/03/04 06:20:45;;;;;;;62.33;23.90;;;;;;;;;;5025060;28;20091;-49
2023/03/04 06:23:11;;;;;;;65.65;24.50;;;;;;;;;;5024948;28;20130;-51
2023/03/04 06:25:36;;;;;;;63.38;23.88;;;;;;;;;;5025263;28;20033;-47
2023/03/04 06:28:01;;;;;;;63.55;24.30;;;;;;;;;;5025748;28;20052;-49
2023/03/04 06:30:27;;;;;;;60.78;23.70;;;;;;;;;;5026198;28;20026;-49
2023/03/04 06:32:52;;;;;;;53.20;21.85;;;;;;;;;;5026168;28;20377;-48
2023/03/04 06:35:17;;;;;;;55.72;23.58;;;;;;;;;;5027758;28;20305;-50
2023/03/04 06:37:43;;;;;;;52.88;21.67;;;;;;;;;;5028871;28;20122;-53
2023/03/04 06:40:09;;;;;;;48.92;21.58;;;;;;;;;;5043223;28;20033;-50
2023/03/04 06:42:34;;;;;;;59.53;23.10;;;;;;;;;;5028780;28;20033;-49
2023/03/04 06:45:00;;;;;;;49.65;21.92;;;;;;;;;;5028924;28;20024;-50
2023/03/04 06:47:26;;;;;;;48.58;21.80;;;;;;;;;;5027309;28;20030;-49
2023/03/04 06:49:52;;;;;;;48.95;21.60;;;;;;;;;;5028883;28;20021;-47
2023/03/04 06:52:17;;;;;;;40.88;19.20;;;;;;;;;;5028714;28;20029;-46
2023/03/04 06:54:42;;;;;;;46.75;20.50;;;;;;;;;;5009823;28;20032;-51
2023/03/04 06:57:07;;;;;;;46.47;21.02;;;;;;;;;;5028526;28;20017;-50
2023/03/04 06:59:33;;;;;;;47.30;20.67;;;;;;;;;;5028380;28;20458;-50
2023/03/04 07:01:58;;;;;;;46.88;22.23;;;;;;;;;;5028424;28;20032;-49
2023/03/04 07:04:23;;;;;;;49.78;21.00;;;;;;;;;;5028705;28;20087;-49
2023/03/04 07:06:49;;;;;;;51.45;22.02;;;;;;;;;;5028710;28;20028;-53
2023/03/04 07:09:14;;;;;;;47.35;21.83;;;;;;;;;;5029321;28;20112;-49
2023/03/04 07:11:40;;;;;;;41.50;19.77;;;;;;;;;;5029196;28;20025;-50
2023/03/04 07:14:05;;;;;;;46.67;19.50;;;;;;;;;;5028423;28;20025;-51
2023/03/04 07:16:30;;;;;;;50.00;20.92;;;;;;;;;;5028544;28;20408;-52
2023/03/04 07:18:55;;;;;;;43.72;21.13;;;;;;;;;;5027817;28;20099;-51
2023/03/04 07:21:21;;;;;;;45.50;19.23;;;;;;;;;;5029296;28;20029;-51
2023/03/04 07:23:46;;;;;;;41.70;18.75;;;;;;;;;;5010221;28;20049;-47
2023/03/04 07:26:11;;;;;;;46.08;19.58;;;;;;;;;;5029478;28;20025;-51
2023/03/04 07:28:37;;;;;;;45.17;21.15;;;;;;;;;;5028994;28;20080;-49
2023/03/04 07:31:08;;;;;;;45.30;19.27;;;;;;;;;;5027915;28;20018;-52
2023/03/04 07:33:34;;;;;;;45.33;21.77;;;;;;;;;;5027800;28;20033;-49
2023/03/04 07:35:59;;;;;;;46.55;21.75;;;;;;;;;;5027349;28;20120;-51
2023/03/04 07:38:24;;;;;;;41.33;20.75;;;;;;;;;;5027755;28;20060;-54
2023/03/04 07:40:56;;;;;;;45.30;20.73;;;;;;;;;;5028032;28;20057;-49
2023/03/04 07:43:22;;;;;;;44.85;21.70;;;;;;;;;;5028814;28;20034;-52
2023/03/04 07:45:47;;;;;;;50.60;20.83;;;;;;;;;;5028435;28;20029;-48
2023/03/04 07:48:12;;;;;;;47.53;22.40;;;;;;;;;;5028858;28;20103;-51
2023/03/04 07:50:37;;;;;;;42.60;20.85;;;;;;;;;;5029347;28;20025;-52
2023/03/04 07:53:03;;;;;;;45.22;20.98;;;;;;;;;;5029018;28;20393;-52
2023/03/04 07:55:30;;;;;;;45.03;21.33;;;;;;;;;;5029171;28;20038;-47
2023/03/04 07:57:56;;;;;;;42.80;21.83;;;;;;;;;;5028138;28;20058;-48
2023/03/04 08:00:22;;;;;;;45.05;23.02;;;;;;;;;;5029444;28;20083;-49
2023/03/04 08:02:47;;;;;;;52.92;25.48;;;;;;;;;;5028251;28;20473;-49
2023/03/04 08:05:12;;;;;;;52.40;25.60;;;;;;;;;;5028289;28;20524;-52
2023/03/04 08:07:37;;;;;;;44.50;22.48;;;;;;;;;;5028080;28;20056;-48
2023/03/04 08:10:03;;;;;;;43.30;20.95;;;;;;;;;;5028095;28;20385;-50
2023/03/04 08:12:28;;;;;;;41.25;19.85;;;;;;;;;;5028543;28;20022;-51
2023/03/04 08:14:54;;;;;;;40.75;21.70;;;;;;;;;;5028208;28;20479;-52
2023/03/04 08:17:19;;;;;;;45.53;21.73;;;;;;;;;;5028544;28;20029;-49
2023/03/04 08:19:45;;;;;;;48.42;22.65;;;;;;;;;;5027943;28;20068;-52
2023/03/04 08:22:10;;;;;;;47.67;22.33;;;;;;;;;;5028442;28;20113;-49
2023/03/04 08:24:35;;;;;;;44.20;22.25;;;;;;;;;;5028460;28;20021;-51
2023/03/04 08:27:01;;;;;;;42.33;21.40;;;;;;;;;;5028375;28;20033;-49
2023/03/04 08:29:26;;;;;;;46.38;23.00;;;;;;;;;;5042485;28;20029;-50
2023/03/04 08:31:53;;;;;;;50.42;22.40;;;;;;;;;;5028513;28;20029;-50
2023/03/04 08:34:20;;;;;;;45.60;22.33;;;;;;;;;;5028849;28;20026;-49
2023/03/04 08:36:45;;;;;;;45.35;20.77;;;;;;;;;;5028878;28;20107;-47
2023/03/04 08:39:12;;;;;;;44.78;22.38;;;;;;;;;;5027692;28;20520;-49
2023/03/04 08:41:37;;;;;;;49.58;21.45;;;;;;;;;;5041671;28;20120;-46
2023/03/04 08:44:02;;;;;;;47.35;22.27;;;;;;;;;;5027540;28;20176;-50
2023/03/04 08:46:28;;;;;;;45.33;21.70;;;;;;;;;;5027595;28;20393;-53
2023/03/04 08:48:53;;;;;;;44.65;21.92;;;;;;;;;;5027060;28;20104;-50
2023/03/04 08:51:18;;;;;;;43.70;22.35;;;;;;;;;;5027309;28;20029;-49
2023/03/04 08:53:44;;;;;;;45.90;22.65;;;;;;;;;;5026979;28;20119;-52
2023/03/04 08:56:10;;;;;;;43.95;21.80;;;;;;;;;;5008505;28;20112;-49
2023/03/04 08:58:35;;;;;;;44.35;22.15;;;;;;;;;;5027165;28;20029;-50
2023/03/04 09:01:01;;;;;;;44.08;21.77;;;;;;;;;;5027716;28;20056;-48
2023/03/04 09:03:26;;;;;;;47.13;22.67;;;;;;;;;;5027544;28;20068;-50
2023/03/04 09:05:52;;;;;;;41.63;21.92;;;;;;;;;;5027569;28;20029;-51
2023/03/04 09:08:17;;;;;;;47.08;23.20;;;;;;;;;;5027158;28;20492;-50
2023/03/04 09:10:43;;;;;;;44.17;21.45;;;;;;;;;;5027254;28;20160;-50
2023/03/04 09:13:10;;;;;;;42.47;22.60;;;;;;;;;;5027266;28;20418;-49
2023/03/04 09:15:35;;;;;;;45.97;21.38;;;;;;;;;;5027444;28;20017;-51
2023/03/04 09:18:02;;;;;;;41.67;21.30;;;;;;;;;;5027272;28;20024;-50
2023/03/04 09:20:27;;;;;;;42.10;20.80;;;;;;;;;;5027351;28;20029;-50
2023/03/04 09:22:52;;;;;;;34.53;18.45;;;;;;;;;;5027143;28;20148;-51
2023/03/04 09:25:18;;;;;;;40.30;20.55;;;;;;;;;;5027226;28;20021;-51
2023/03/04 09:27:43;;;;;;;40.67;20.42;;;;;;;;;;5027455;28;20093;-51
2023/03/04 09:30:09;;;;;;;38.53;19.40;;;;;;;;;;5026800;28;20029;-52
2023/03/04 09:32:34;;;;;;;33.50;17.63;;;;;;;;;;5026628;28;20034;-47
2023/03/04 09:34:59;;;;;;;34.83;18.23;;;;;;;;;;5026473;28;20676;-52
2023/03/04 09:37:24;;;;;;;34.13;17.23;;;;;;;;;;5026770;28;20036;-50
2023/03/04 09:39:50;;;;;;;31.88;17.30;;;;;;;;;;5026899;28;20071;-50
2023/03/04 09:42:27;;;;;;;38.53;18.92;;;;;;;;;;5024055;28;20090;-47
2023/03/04 09:44:53;;;;;;;32.95;16.65;;;;;;;;;;5040528;28;20040;-46
2023/03/04 09:47:20;;;;;;;33.88;17.80;;;;;;;;;;5026317;28;20021;-51
2023/03/04 09:49:49;;;;;;;29.00;16.88;;;;;;;;;;5026373;28;20389;-49
2023/03/04 09:52:34;;;;;;;32.17;16.10;;;;;;;;;;5026233;28;20469;-51
2023/03/04 09:55:08;;;;;;;34.67;18.30;;;;;;;;;;5026706;28;20310;-49
2023/03/04 09:57:54;;;;;;;29.48;16.08;;;;;;;;;;5026539;28;20017;-53
2023/03/04 10:00:24;;;;;;;30.13;15.95;;;;;;;;;;5026833;28;20033;-51
2023/03/04 10:03:12;;;;;;;30.98;17.25;;;;;;;;;;5026478;28;20029;-49
2023/03/04 10:05:42;;;;;;;34.83;15.65;;;;;;;;;;5026748;28;20068;-47
2023/03/04 10:08:25;;;;;;;27.50;14.95;;;;;;;;;;5026641;28;20033;-51
2023/03/04 10:10:53;;;;;;;36.25;15.68;;;;;;;;;;5030891;28;20018;-53
2023/03/04 10:13:25;;;;;;;28.77;16.58;;;;;;;;;;5030419;28;20396;-50
2023/03/04 10:15:50;;;;;;;30.77;16.10;;;;;;;;;;5030791;28;20025;-50
2023/03/04 10:18:20;;;;;;;30.63;16.80;;;;;;;;;;5030366;28;20039;-50
2023/03/04 10:20:52;;;;;;;31.63;16.80;;;;;;;;;;5030293;28;20116;-50
2023/03/04 10:23:20;;;;;;;28.85;16.45;;;;;;;;;;5030224;28;20037;-48
2023/03/04 10:25:45;;;;;;;32.83;17.83;;;;;;;;;;5030397;28;20112;-52
2023/03/04 10:28:17;;;;;;;31.98;16.42;;;;;;;;;;5030477;28;20109;-50
2023/03/04 10:30:49;;;;;;;34.22;18.60;;;;;;;;;;5030292;28;20075;-50
2023/03/04 10:33:15;;;;;;;32.90;17.13;;;;;;;;;;5030264;28;20037;-51
2023/03/04 10:35:43;;;;;;;34.25;17.55;;;;;;;;;;5029905;28;20053;-53
2023/03/04 10:38:11;;;;;;;33.92;17.90;;;;;;;;;;5030339;28;20431;-51
2023/03/04 10:40:38;;;;;;;37.53;19.67;;;;;;;;;;5029912;28;20099;-50
2023/03/04 10:43:07;;;;;;;36.58;17.95;;;;;;;;;;5030013;28;20038;-50
2023/03/04 10:45:36;;;;;;;36.47;17.85;;;;;;;;;;5030136;28;20422;-48
2023/03/04 10:48:02;;;;;;;39.80;19.02;;;;;;;;;;5030000;28;20030;-49
2023/03/04 10:50:27;;;;;;;37.10;19.45;;;;;;;;;;5030125;28;20426;-48
2023/03/04 10:52:54;;;;;;;37.35;18.98;;;;;;;;;;5029864;28;20053;-51
2023/03/04 10:55:30;;;;;;;36.72;18.92;;;;;;;;;;5030056;28;20358;-50
2023/03/04 10:58:02;;;;;;;35.25;19.13;;;;;;;;;;5029686;28;20021;-51
2023/03/04 11:00:30;;;;;;;35.40;19.52;;;;;;;;;;5029899;28;20029;-50
2023/03/04 11:03:14;;;;;;;43.13;20.73;;;;;;;;;;5029555;28;20095;-53
2023/03/04 11:05:40;;;;;;;41.00;18.67;;;;;;;;;;5030103;28;20461;-50
2023/03/04 11:08:15;;;;;;;36.65;18.80;;;;;;;;;;5029844;28;20032;-54
2023/03/04 11:10:41;;;;;;;42.50;19.52;;;;;;;;;;5029624;28;20021;-50
2023/03/04 11:13:16;;;;;;;34.40;18.70;;;;;;;;;;5029714;28;20098;-52
2023/03/04 11:15:52;;;;;;;43.50;19.13;;;;;;;;;;5029535;28;20083;-51
2023/03/04 11:18:21;;;;;;;33.38;17.08;;;;;;;;;;5029474;28;20473;-48
2023/03/04 11:20:48;;;;;;;33.17;17.30;;;;;;;;;;5029199;28;20073;-51
2023/03/04 11:23:13;;;;;;;32.17;16.83;;;;;;;;;;5029531;28;20060;-48
2023/03/04 11:25:47;;;;;;;29.20;16.13;;;;;;;;;;5029488;28;20516;-52
2023/03/04 11:28:15;;;;;;;29.63;15.40;;;;;;;;;;5029829;28;20255;-49
2023/03/04 11:30:43;;;;;;;38.20;16.85;;;;;;;;;;5029095;28;20056;-52
2023/03/04 11:33:13;;;;;;;30.63;17.23;;;;;;;;;;5029349;28;20036;-52
2023/03/04 11:35:44;;;;;;;31.80;17.17;;;;;;;;;;5029187;28;20071;-52
2023/03/04 11:38:20;;;;;;;32.85;15.55;;;;;;;;;;5029410;28;20036;-51
2023/03/04 11:40:52;;;;;;;36.60;17.50;;;;;;;;;;5029401;28;20458;-53
2023/03/04 11:43:18;;;;;;;33.75;17.73;;;;;;;;;;5029185;28;20464;-49
2023/03/04 11:45:55;;;;;;;36.73;17.43;;;;;;;;;;5029169;28;20057;-49
2023/03/04 11:48:32;;;;;;;33.70;16.35;;;;;;;;;;5029267;28;20251;-51
2023/03/04 11:51:05;;;;;;;34.45;16.67;;;;;;;;;;5028937;28;20029;-48
2023/03/04 11:53:35;;;;;;;34.88;16.08;;;;;;;;;;5027258;28;20492;-52
2023/03/04 11:56:00;;;;;;;33.33;16.17;;;;;;;;;;5029133;28;20045;-50
2023/03/04 11:58:26;;;;;;;29.53;15.00;;;;;;;;;;5029019;28;20048;-53
2023/03/04 12:01:07;;;;;;;31.47;16.50;;;;;;;;;;5028861;28;20247;-49
2023/03/04 12:03:32;;;;;;;29.27;15.38;;;;;;;;;;5028313;28;20685;-49
2023/03/04 12:06:09;;;;;;;25.43;13.67;;;;;;;;;;5028815;28;20023;-50
2023/03/04 12:09:04;;;;;;;34.58;15.98;;;;;;;;;;5028655;28;20658;-51
2023/03/04 12:11:39;;;;;;;29.95;15.07;;;;;;;;;;4986260;28;20157;-52
2023/03/04 12:14:24;;;;;;;27.65;14.23;;;;;;;;;;4986818;28;20034;-53
2023/03/04 12:17:02;;;;;;;29.85;11.48;;;;;;;;;;4985870;28;20113;-51
2023/03/04 12:19:27;;;;;;;37.20;13.57;;;;;;;;;;4985918;28;20070;-51
2023/03/04 12:22:05;;;;;;;28.53;12.20;;;;;;;;;;4985572;28;20030;-49
2023/03/04 12:24:45;;;;;;;31.15;12.02;;;;;;;;;;4985466;28;20284;-50
2023/03/04 12:27:31;;;;;;;29.55;14.02;;;;;;;;;;4984948;28;20022;-51
2023/03/04 12:30:18;;;;;;;27.88;12.32;;;;;;;;;;4888844;29;20097;-52
2023/03/04 12:33:00;;;;;;;27.85;12.93;;;;;;;;;;4889155;29;20037;-54
2023/03/04 12:35:43;;;;;;;28.38;13.02;;;;;;;;;;4890161;29;20052;-51
2023/03/04 12:38:08;;;;;;;26.35;13.18;;;;;;;;;;4890428;29;20074;-52
2023/03/04 12:40:52;;;;;;;22.88;11.82;;;;;;;;;;4889989;29;20039;-51
2023/03/04 12:43:35;;;;;;;31.63;15.00;;;;;;;;;;4889795;29;20055;-51
2023/03/04 12:46:12;;;;;;;27.60;13.05;;;;;;;;;;4890286;29;20048;-48
2023/03/04 12:49:16;;;;;;;26.38;12.45;;;;;;;;;;4918094;29;20126;-51
2023/03/04 12:51:56;;;;;;;28.90;12.23;;;;;;;;;;4888501;29;20033;-52
2023/03/04 12:54:22;;;;;;;27.92;13.82;;;;;;;;;;4889128;29;20070;-52
2023/03/04 12:56:53;;;;;;;29.92;12.85;;;;;;;;;;4889828;29;20045;-52
2023/03/04 12:59:19;;;;;;;24.42;12.60;;;;;;;;;;4890076;29;20028;-51
2023/03/04 13:02:05;;;;;;;33.85;14.80;;;;;;;;;;4889915;29;20037;-52
2023/03/04 13:04:45;;;;;;;29.20;14.20;;;;;;;;;;4871116;29;20506;-51
2023/03/04 13:07:26;;;;;;;32.20;14.65;;;;;;;;;;4901441;29;20031;-50
2023/03/04 13:09:54;;;;;;;29.90;13.93;;;;;;;;;;4927172;28;20040;-53
2023/03/04 13:12:21;;;;;;;30.40;14.82;;;;;;;;;;4927056;28;20502;-50
2023/03/04 13:15:04;;;;;;;34.72;15.20;;;;;;;;;;4927413;29;20470;-48
2023/03/04 13:17:35;;;;;;;32.25;13.98;;;;;;;;;;4927187;29;20019;-48
2023/03/04 13:20:22;;;;;;;30.35;14.40;;;;;;;;;;4927092;28;20043;-51
2023/03/04 13:22:59;;;;;;;36.42;17.85;;;;;;;;;;4963700;28;20117;-52
2023/03/04 13:25:31;;;;;;;37.88;17.38;;;;;;;;;;4984990;28;20453;-51
2023/03/04 13:27:56;;;;;;;31.75;15.90;;;;;;;;;;4984994;28;20400;-51
2023/03/04 13:30:27;;;;;;;34.80;15.60;;;;;;;;;;4985069;28;20018;-47
2023/03/04 13:32:52;;;;;;;28.60;14.93;;;;;;;;;;4984884;28;20795;-51
2023/03/04 13:35:36;;;;;;;32.67;15.43;;;;;;;;;;4985025;28;20030;-51
2023/03/04 13:38:18;;;;;;;31.17;14.95;;;;;;;;;;4984810;28;20018;-53
2023/03/04 13:40:44;;;;;;;32.28;15.05;;;;;;;;;;4989823;28;20385;-53
2023/03/04 13:43:38;;;;;;;36.42;16.30;;;;;;;;;;5040616;28;20042;-52
2023/03/04 13:46:19;;;;;;;31.88;15.02;;;;;;;;;;5027459;28;20029;-51
2023/03/04 13:48:59;;;;;;;28.50;14.60;;;;;;;;;;5026320;28;20021;-50
2023/03/04 13:51:24;;;;;;;;;;;;;;;;;;5026207;28;20140;-53
2023/03/04 13:53:57;;;;;;;31.33;14.68;;;;;;;;;;5026409;28;19951;-53
2023/03/04 13:56:25;;;;;;;33.00;15.32;;;;;;;;;;5026809;28;20038;-52
2023/03/04 13:59:23;;;;;;;29.92;14.93;;;;;;;;;;5026754;28;20032;-53
2023/03/04 14:01:51;;;;;;;37.08;15.85;;;;;;;;;;4986118;28;20099;-48
2023/03/04 14:04:28;;;;;;;32.03;15.60;;;;;;;;;;4984930;28;20556;-49
2023/03/04 14:06:57;;;;;;;34.60;16.08;;;;;;;;;;4984671;28;20105;-51
2023/03/04 14:09:26;;;;;;;37.55;16.08;;;;;;;;;;4984358;28;20018;-50
2023/03/04 14:11:53;;;;;;;34.53;15.82;;;;;;;;;;4984193;28;20081;-52
2023/03/04 14:14:20;;;;;;;44.22;18.90;;;;;;;;;;4984500;28;20317;-48
2023/03/04 14:16:53;;;;;;;31.55;15.75;;;;;;;;;;4984103;28;20030;-50
2023/03/04 14:19:26;;;;;;;33.97;16.05;;;;;;;;;;4983719;28;20030;-48
2023/03/04 14:21:52;;;;;;;35.65;16.52;;;;;;;;;;4983971;28;20022;-49
2023/03/04 14:24:18;;;;;;;43.40;18.83;;;;;;;;;;4984077;28;20096;-50